sensor_id;sensor_type;location;lat;lon;timestamp;temperature;humidity
41060;DHT22;26811;53.160;8.202;2023-08-07T00:00:54;15.20;99.90
41060;DHT22;26811;53.160;8.202;2023-08-07T00:05:54;15.20;99.90
41060;DHT22;26811;53.160;8.202;2023-08-07T00:11:10;15.10;99.90
41060;DHT22;26811;53.160;8.202;2023-08-07T00:16:10;15.10;99.90
41060;DHT22;26811;53.160;8.202;2023-08-07T00:21:11;15.00;99.90
41060;DHT22;26811;53.160;8.202;2023-08-07T00:26:12;14.90;99.90
41060;DHT22;26811;53.160;8.202;2023-08-07T00:31:12;14.90;99.90
41060;DHT22;26811;53.160;8.202;2023-08-07T00:36:13;14.90;99.90
41060;DHT22;26811;53.160;8.202;2023-08-07T00:41:13;14.90;99.90
41060;DHT22;26811;53.160;8.202;2023-08-07T00:46:14;14.90;99.90
41060;DHT22;26811;53.160;8.202;2023-08-07T00:51:15;14.90;99.90
41060;DHT22;26811;53.160;8.202;2023-08-07T00:56:16;14.90;99.90
41060;DHT22;26811;53.160;8.202;2023-08-07T01:01:17;15.00;99.90
41060;DHT22;26811;53.160;8.202;2023-08-07T01:06:17;15.00;99.90
41060;DHT22;26811;53.160;8.202;2023-08-07T01:11:33;14.90;99.90
41060;DHT22;26811;53.160;8.202;2023-08-07T01:16:45;14.90;99.90
41060;DHT22;26811;53.160;8.202;2023-08-07T01:21:48;14.90;99.90
41060;DHT22;26811;53.160;8.202;2023-08-07T01:26:50;14.90;99.90
41060;DHT22;26811;53.160;8.202;2023-08-07T01:31:53;14.90;99.90
41060;DHT22;26811;53.160;8.202;2023-08-07T01:36:57;14.90;99.90
41060;DHT22;26811;53.160;8.202;2023-08-07T01:41:58;14.90;99.90
41060;DHT22;26811;53.160;8.202;2023-08-07T01:47:00;14.80;99.90
41060;DHT22;26811;53.160;8.202;2023-08-07T01:52:01;14.80;99.90
41060;DHT22;26811;53.160;8.202;2023-08-07T01:57:01;14.80;99.90
41060;DHT22;26811;53.160;8.202;2023-08-07T02:02:02;14.80;99.90
41060;DHT22;26811;53.160;8.202;2023-08-07T02:07:03;14.80;99.90
41060;DHT22;26811;53.160;8.202;2023-08-07T02:12:04;14.70;99.90
41060;DHT22;26811;53.160;8.202;2023-08-07T02:17:05;14.80;99.90
41060;DHT22;26811;53.160;8.202;2023-08-07T02:22:06;14.70;99.90
41060;DHT22;26811;53.160;8.202;2023-08-07T02:27:06;14.80;99.90
41060;DHT22;26811;53.160;8.202;2023-08-07T02:32:07;14.80;99.90
41060;DHT22;26811;53.160;8.202;2023-08-07T02:37:08;14.80;99.90
41060;DHT22;26811;53.160;8.202;2023-08-07T02:42:08;14.80;99.90
41060;DHT22;26811;53.160;8.202;2023-08-07T02:47:09;14.80;99.90
41060;DHT22;26811;53.160;8.202;2023-08-07T02:52:09;14.80;99.90
41060;DHT22;26811;53.160;8.202;2023-08-07T02:57:10;14.80;99.90
41060;DHT22;26811;53.160;8.202;2023-08-07T03:02:13;14.90;99.90
41060;DHT22;26811;53.160;8.202;2023-08-07T03:07:14;14.90;99.90
41060;DHT22;26811;53.160;8.202;2023-08-07T03:12:14;14.80;99.90
41060;DHT22;26811;53.160;8.202;2023-08-07T03:17:15;14.90;99.90
41060;DHT22;26811;53.160;8.202;2023-08-07T03:22:15;14.80;99.90
41060;DHT22;26811;53.160;8.202;2023-08-07T03:27:16;14.90;99.90
41060;DHT22;26811;53.160;8.202;2023-08-07T03:32:17;14.90;99.90
41060;DHT22;26811;53.160;8.202;2023-08-07T03:37:17;14.90;99.90
41060;DHT22;26811;53.160;8.202;2023-08-07T03:42:18;15.00;99.90
41060;DHT22;26811;53.160;8.202;2023-08-07T03:47:18;15.00;99.90
41060;DHT22;26811;53.160;8.202;2023-08-07T03:52:19;15.00;99.90
41060;DHT22;26811;53.160;8.202;2023-08-07T03:57:19;14.90;99.90
41060;DHT22;26811;53.160;8.202;2023-08-07T04:02:20;14.90;99.90
41060;DHT22;26811;53.160;8.202;2023-08-07T04:07:20;14.90;99.90
41060;DHT22;26811;53.160;8.202;2023-08-07T04:12:21;14.80;99.90
41060;DHT22;26811;53.160;8.202;2023-08-07T04:17:21;14.80;99.90
41060;DHT22;26811;53.160;8.202;2023-08-07T04:22:22;14.70;99.90
41060;DHT22;26811;53.160;8.202;2023-08-07T04:27:22;14.70;99.90
41060;DHT22;26811;53.160;8.202;2023-08-07T04:32:23;14.60;99.90
41060;DHT22;26811;53.160;8.202;2023-08-07T04:37:24;14.60;99.90
41060;DHT22;26811;53.160;8.202;2023-08-07T04:42:24;14.60;99.90
41060;DHT22;26811;53.160;8.202;2023-08-07T04:47:25;14.50;99.90
41060;DHT22;26811;53.160;8.202;2023-08-07T04:52:25;14.60;99.90
41060;DHT22;26811;53.160;8.202;2023-08-07T04:57:26;14.60;99.90
41060;DHT22;26811;53.160;8.202;2023-08-07T05:02:26;14.60;99.90
41060;DHT22;26811;53.160;8.202;2023-08-07T05:07:27;14.60;99.90
41060;DHT22;26811;53.160;8.202;2023-08-07T05:12:28;14.60;99.90
41060;DHT22;26811;53.160;8.202;2023-08-07T05:17:28;14.70;99.90
41060;DHT22;26811;53.160;8.202;2023-08-07T05:22:29;14.70;99.90
41060;DHT22;26811;53.160;8.202;2023-08-07T05:27:30;14.70;99.90
41060;DHT22;26811;53.160;8.202;2023-08-07T05:32:30;14.80;99.90
41060;DHT22;26811;53.160;8.202;2023-08-07T05:37:33;14.90;99.90
41060;DHT22;26811;53.160;8.202;2023-08-07T05:42:34;14.90;99.90
41060;DHT22;26811;53.160;8.202;2023-08-07T05:47:35;15.00;99.90
41060;DHT22;26811;53.160;8.202;2023-08-07T05:52:35;15.20;99.90
41060;DHT22;26811;53.160;8.202;2023-08-07T05:57:36;15.20;99.90
41060;DHT22;26811;53.160;8.202;2023-08-07T06:02:36;15.30;99.90
41060;DHT22;26811;53.160;8.202;2023-08-07T06:07:37;15.30;99.90
41060;DHT22;26811;53.160;8.202;2023-08-07T06:12:37;15.40;99.90
41060;DHT22;26811;53.160;8.202;2023-08-07T06:17:38;15.60;99.90
41060;DHT22;26811;53.160;8.202;2023-08-07T06:22:40;15.70;99.90
41060;DHT22;26811;53.160;8.202;2023-08-07T06:27:40;15.60;99.90
41060;DHT22;26811;53.160;8.202;2023-08-07T06:32:41;15.40;99.90
41060;DHT22;26811;53.160;8.202;2023-08-07T06:37:41;15.40;99.90
41060;DHT22;26811;53.160;8.202;2023-08-07T06:42:42;15.40;99.90
41060;DHT22;26811;53.160;8.202;2023-08-07T06:47:42;15.40;99.90
41060;DHT22;26811;53.160;8.202;2023-08-07T06:52:43;15.50;99.90
41060;DHT22;26811;53.160;8.202;2023-08-07T06:57:43;15.50;99.90
41060;DHT22;26811;53.160;8.202;2023-08-07T07:02:44;15.60;99.90
41060;DHT22;26811;53.160;8.202;2023-08-07T07:07:44;15.70;99.90
41060;DHT22;26811;53.160;8.202;2023-08-07T07:12:45;15.80;99.90
41060;DHT22;26811;53.160;8.202;2023-08-07T07:17:45;16.10;99.90
41060;DHT22;26811;53.160;8.202;2023-08-07T07:22:46;16.70;99.90
41060;DHT22;26811;53.160;8.202;2023-08-07T07:27:47;17.00;99.90
41060;DHT22;26811;53.160;8.202;2023-08-07T07:32:49;17.30;99.90
41060;DHT22;26811;53.160;8.202;2023-08-07T07:37:50;17.50;99.90
41060;DHT22;26811;53.160;8.202;2023-08-07T07:42:51;17.50;99.90
41060;DHT22;26811;53.160;8.202;2023-08-07T07:47:51;17.50;99.90
41060;DHT22;26811;53.160;8.202;2023-08-07T07:52:52;17.40;99.90
41060;DHT22;26811;53.160;8.202;2023-08-07T07:57:53;17.30;99.90
41060;DHT22;26811;53.160;8.202;2023-08-07T08:02:54;17.40;99.90
41060;DHT22;26811;53.160;8.202;2023-08-07T08:07:54;17.30;99.90
41060;DHT22;26811;53.160;8.202;2023-08-07T08:12:56;17.30;99.90
41060;DHT22;26811;53.160;8.202;2023-08-07T08:17:56;17.20;99.90
41060;DHT22;26811;53.160;8.202;2023-08-07T08:22:57;16.90;99.90
41060;DHT22;26811;53.160;8.202;2023-08-07T08:27:57;16.90;99.90
41060;DHT22;26811;53.160;8.202;2023-08-07T08:32:58;17.00;99.90
41060;DHT22;26811;53.160;8.202;2023-08-07T08:37:58;17.20;99.90
41060;DHT22;26811;53.160;8.202;2023-08-07T08:43:02;17.60;99.90
41060;DHT22;26811;53.160;8.202;2023-08-07T08:48:04;18.00;99.90
41060;DHT22;26811;53.160;8.202;2023-08-07T08:53:05;17.70;99.90
41060;DHT22;26811;53.160;8.202;2023-08-07T08:58:08;17.20;99.90
41060;DHT22;26811;53.160;8.202;2023-08-07T09:03:08;17.10;99.90
41060;DHT22;26811;53.160;8.202;2023-08-07T09:08:10;17.50;99.90
41060;DHT22;26811;53.160;8.202;2023-08-07T09:13:14;17.80;99.90
41060;DHT22;26811;53.160;8.202;2023-08-07T09:18:15;18.30;99.90
41060;DHT22;26811;53.160;8.202;2023-08-07T09:23:16;18.80;99.90
41060;DHT22;26811;53.160;8.202;2023-08-07T09:28:17;18.80;99.90
41060;DHT22;26811;53.160;8.202;2023-08-07T09:33:25;19.10;99.90
41060;DHT22;26811;53.160;8.202;2023-08-07T09:38:30;18.80;99.90
41060;DHT22;26811;53.160;8.202;2023-08-07T09:43:36;18.00;99.90
41060;DHT22;26811;53.160;8.202;2023-08-07T09:48:44;17.50;99.90
41060;DHT22;26811;53.160;8.202;2023-08-07T09:53:47;17.30;99.90
41060;DHT22;26811;53.160;8.202;2023-08-07T09:58:47;17.60;99.90
41060;DHT22;26811;53.160;8.202;2023-08-07T10:03:52;18.10;99.90
41060;DHT22;26811;53.160;8.202;2023-08-07T10:08:54;18.50;99.90
41060;DHT22;26811;53.160;8.202;2023-08-07T10:13:55;18.10;99.90
41060;DHT22;26811;53.160;8.202;2023-08-07T10:18:57;17.20;99.90
41060;DHT22;26811;53.160;8.202;2023-08-07T10:24:00;16.80;99.90
41060;DHT22;26811;53.160;8.202;2023-08-07T10:29:04;16.50;99.90
41060;DHT22;26811;53.160;8.202;2023-08-07T10:34:05;16.30;99.90
41060;DHT22;26811;53.160;8.202;2023-08-07T10:44:21;16.50;99.90
41060;DHT22;26811;53.160;8.202;2023-08-07T10:49:36;16.90;99.90
41060;DHT22;26811;53.160;8.202;2023-08-07T10:54:50;17.10;99.90
41060;DHT22;26811;53.160;8.202;2023-08-07T11:00:00;17.00;99.90
41060;DHT22;26811;53.160;8.202;2023-08-07T11:05:02;17.00;99.90
41060;DHT22;26811;53.160;8.202;2023-08-07T11:10:04;16.90;99.90
41060;DHT22;26811;53.160;8.202;2023-08-07T11:15:06;16.80;99.90
41060;DHT22;26811;53.160;8.202;2023-08-07T11:20:07;17.00;99.90
41060;DHT22;26811;53.160;8.202;2023-08-07T11:25:09;17.30;99.90
41060;DHT22;26811;53.160;8.202;2023-08-07T11:30:12;17.40;99.90
41060;DHT22;26811;53.160;8.202;2023-08-07T11:35:13;17.40;99.90
41060;DHT22;26811;53.160;8.202;2023-08-07T11:40:13;17.30;99.90
41060;DHT22;26811;53.160;8.202;2023-08-07T11:45:14;17.40;99.90
41060;DHT22;26811;53.160;8.202;2023-08-07T11:50:15;17.70;99.90
41060;DHT22;26811;53.160;8.202;2023-08-07T11:55:17;17.80;99.90
41060;DHT22;26811;53.160;8.202;2023-08-07T12:00:18;17.70;99.90
41060;DHT22;26811;53.160;8.202;2023-08-07T12:05:20;17.80;99.90
41060;DHT22;26811;53.160;8.202;2023-08-07T12:10:22;17.90;99.90
41060;DHT22;26811;53.160;8.202;2023-08-07T12:15:23;17.80;99.90
41060;DHT22;26811;53.160;8.202;2023-08-07T12:20:24;17.70;99.90
41060;DHT22;26811;53.160;8.202;2023-08-07T12:25:24;17.50;99.90
41060;DHT22;26811;53.160;8.202;2023-08-07T12:30:25;17.30;99.90
41060;DHT22;26811;53.160;8.202;2023-08-07T12:35:25;17.20;99.90
41060;DHT22;26811;53.160;8.202;2023-08-07T12:40:26;17.20;99.90
41060;DHT22;26811;53.160;8.202;2023-08-07T12:45:26;17.50;99.90
41060;DHT22;26811;53.160;8.202;2023-08-07T12:50:28;17.90;99.90
41060;DHT22;26811;53.160;8.202;2023-08-07T12:55:29;18.10;99.90
41060;DHT22;26811;53.160;8.202;2023-08-07T13:00:30;18.30;99.90
41060;DHT22;26811;53.160;8.202;2023-08-07T13:05:31;18.50;99.90
41060;DHT22;26811;53.160;8.202;2023-08-07T13:10:32;18.50;99.90
41060;DHT22;26811;53.160;8.202;2023-08-07T13:15:32;18.30;99.90
41060;DHT22;26811;53.160;8.202;2023-08-07T13:20:33;18.10;99.90
41060;DHT22;26811;53.160;8.202;2023-08-07T13:25:34;17.90;99.90
41060;DHT22;26811;53.160;8.202;2023-08-07T13:30:35;17.80;99.90
41060;DHT22;26811;53.160;8.202;2023-08-07T13:35:35;17.80;99.90
41060;DHT22;26811;53.160;8.202;2023-08-07T13:40:36;17.90;99.90
41060;DHT22;26811;53.160;8.202;2023-08-07T13:45:37;18.20;99.90
41060;DHT22;26811;53.160;8.202;2023-08-07T13:50:38;18.20;99.90
41060;DHT22;26811;53.160;8.202;2023-08-07T13:55:38;18.00;99.90
41060;DHT22;26811;53.160;8.202;2023-08-07T14:00:39;18.00;99.90
41060;DHT22;26811;53.160;8.202;2023-08-07T14:05:40;18.00;99.90
41060;DHT22;26811;53.160;8.202;2023-08-07T14:10:41;17.80;99.90
41060;DHT22;26811;53.160;8.202;2023-08-07T14:15:42;17.60;99.90
41060;DHT22;26811;53.160;8.202;2023-08-07T14:20:42;17.50;99.90
41060;DHT22;26811;53.160;8.202;2023-08-07T14:25:43;17.50;99.90
41060;DHT22;26811;53.160;8.202;2023-08-07T14:30:43;17.70;99.90
41060;DHT22;26811;53.160;8.202;2023-08-07T14:35:44;17.80;99.90
41060;DHT22;26811;53.160;8.202;2023-08-07T14:40:44;17.90;99.90
41060;DHT22;26811;53.160;8.202;2023-08-07T14:45:45;17.80;99.90
41060;DHT22;26811;53.160;8.202;2023-08-07T14:50:46;17.60;99.90
41060;DHT22;26811;53.160;8.202;2023-08-07T14:55:47;17.70;99.90
41060;DHT22;26811;53.160;8.202;2023-08-07T15:00:47;18.10;99.90
41060;DHT22;26811;53.160;8.202;2023-08-07T15:05:49;18.40;99.90
41060;DHT22;26811;53.160;8.202;2023-08-07T15:10:52;18.70;99.90
41060;DHT22;26811;53.160;8.202;2023-08-07T15:15:53;18.70;99.90
41060;DHT22;26811;53.160;8.202;2023-08-07T15:20:53;18.40;99.90
41060;DHT22;26811;53.160;8.202;2023-08-07T15:25:54;18.20;99.90
41060;DHT22;26811;53.160;8.202;2023-08-07T15:30:54;17.90;99.90
41060;DHT22;26811;53.160;8.202;2023-08-07T15:35:55;17.40;99.90
41060;DHT22;26811;53.160;8.202;2023-08-07T15:40:56;16.80;99.90
41060;DHT22;26811;53.160;8.202;2023-08-07T15:45:56;16.50;99.90
41060;DHT22;26811;53.160;8.202;2023-08-07T15:50:57;16.60;99.90
41060;DHT22;26811;53.160;8.202;2023-08-07T15:55:57;16.70;99.90
41060;DHT22;26811;53.160;8.202;2023-08-07T16:00:58;16.90;99.90
41060;DHT22;26811;53.160;8.202;2023-08-07T16:05:58;17.00;99.90
41060;DHT22;26811;53.160;8.202;2023-08-07T16:10:59;17.10;99.90
41060;DHT22;26811;53.160;8.202;2023-08-07T16:16:02;17.20;99.90
41060;DHT22;26811;53.160;8.202;2023-08-07T16:21:02;17.20;99.90
41060;DHT22;26811;53.160;8.202;2023-08-07T16:26:03;17.10;99.90
41060;DHT22;26811;53.160;8.202;2023-08-07T16:31:04;17.00;99.90
41060;DHT22;26811;53.160;8.202;2023-08-07T16:36:04;17.00;99.90
41060;DHT22;26811;53.160;8.202;2023-08-07T16:41:05;16.90;99.90
41060;DHT22;26811;53.160;8.202;2023-08-07T16:46:05;16.70;99.90
41060;DHT22;26811;53.160;8.202;2023-08-07T16:51:07;16.70;99.90
41060;DHT22;26811;53.160;8.202;2023-08-07T16:56:07;16.60;99.90
41060;DHT22;26811;53.160;8.202;2023-08-07T17:01:08;16.50;99.90
41060;DHT22;26811;53.160;8.202;2023-08-07T17:06:08;16.50;99.90
41060;DHT22;26811;53.160;8.202;2023-08-07T17:11:09;16.60;99.90
41060;DHT22;26811;53.160;8.202;2023-08-07T17:16:10;16.60;99.90
41060;DHT22;26811;53.160;8.202;2023-08-07T17:21:11;16.60;99.90
41060;DHT22;26811;53.160;8.202;2023-08-07T17:26:11;16.50;99.90
41060;DHT22;26811;53.160;8.202;2023-08-07T17:31:12;16.40;99.90
41060;DHT22;26811;53.160;8.202;2023-08-07T17:36:12;16.40;99.90
41060;DHT22;26811;53.160;8.202;2023-08-07T17:41:13;16.30;99.90
41060;DHT22;26811;53.160;8.202;2023-08-07T17:46:13;16.20;99.90
41060;DHT22;26811;53.160;8.202;2023-08-07T17:51:14;16.10;99.90
41060;DHT22;26811;53.160;8.202;2023-08-07T17:56:20;16.10;99.90
41060;DHT22;26811;53.160;8.202;2023-08-07T18:01:22;16.00;99.90
41060;DHT22;26811;53.160;8.202;2023-08-07T18:06:22;16.00;99.90
41060;DHT22;26811;53.160;8.202;2023-08-07T18:11:23;16.00;99.90
41060;DHT22;26811;53.160;8.202;2023-08-07T18:16:23;15.90;99.90
41060;DHT22;26811;53.160;8.202;2023-08-07T18:21:25;15.80;99.90
41060;DHT22;26811;53.160;8.202;2023-08-07T18:26:25;15.70;99.90
41060;DHT22;26811;53.160;8.202;2023-08-07T18:31:26;15.50;99.90
41060;DHT22;26811;53.160;8.202;2023-08-07T18:36:30;15.40;99.90
41060;DHT22;26811;53.160;8.202;2023-08-07T18:41:31;15.40;99.90
41060;DHT22;26811;53.160;8.202;2023-08-07T18:46:32;15.30;99.90
41060;DHT22;26811;53.160;8.202;2023-08-07T18:51:32;15.10;99.90
41060;DHT22;26811;53.160;8.202;2023-08-07T18:56:34;14.90;99.90
41060;DHT22;26811;53.160;8.202;2023-08-07T19:01:35;14.80;99.90
41060;DHT22;26811;53.160;8.202;2023-08-07T19:06:35;14.70;99.90
41060;DHT22;26811;53.160;8.202;2023-08-07T19:11:36;14.70;99.90
41060;DHT22;26811;53.160;8.202;2023-08-07T19:16:37;14.70;99.90
41060;DHT22;26811;53.160;8.202;2023-08-07T19:21:39;14.60;99.90
41060;DHT22;26811;53.160;8.202;2023-08-07T19:26:39;14.50;99.90
41060;DHT22;26811;53.160;8.202;2023-08-07T19:31:41;14.40;99.90
41060;DHT22;26811;53.160;8.202;2023-08-07T19:36:42;14.40;99.90
41060;DHT22;26811;53.160;8.202;2023-08-07T19:41:42;14.40;99.90
41060;DHT22;26811;53.160;8.202;2023-08-07T19:46:43;14.40;99.90
41060;DHT22;26811;53.160;8.202;2023-08-07T19:51:43;14.30;99.90
41060;DHT22;26811;53.160;8.202;2023-08-07T19:56:44;14.20;99.90
41060;DHT22;26811;53.160;8.202;2023-08-07T20:01:44;14.20;99.90
41060;DHT22;26811;53.160;8.202;2023-08-07T20:06:45;14.20;99.90
41060;DHT22;26811;53.160;8.202;2023-08-07T20:11:46;14.20;99.90
41060;DHT22;26811;53.160;8.202;2023-08-07T20:16:46;14.10;99.90
41060;DHT22;26811;53.160;8.202;2023-08-07T20:21:47;14.10;99.90
41060;DHT22;26811;53.160;8.202;2023-08-07T20:26:47;14.10;99.90
41060;DHT22;26811;53.160;8.202;2023-08-07T20:31:48;14.00;99.90
41060;DHT22;26811;53.160;8.202;2023-08-07T20:36:48;14.00;99.90
41060;DHT22;26811;53.160;8.202;2023-08-07T20:41:49;13.90;99.90
41060;DHT22;26811;53.160;8.202;2023-08-07T20:46:49;13.90;99.90
41060;DHT22;26811;53.160;8.202;2023-08-07T20:51:50;13.90;99.90
41060;DHT22;26811;53.160;8.202;2023-08-07T20:56:50;13.80;99.90
41060;DHT22;26811;53.160;8.202;2023-08-07T21:01:51;13.70;99.90
41060;DHT22;26811;53.160;8.202;2023-08-07T21:06:52;13.70;99.90
41060;DHT22;26811;53.160;8.202;2023-08-07T21:11:53;13.60;99.90
41060;DHT22;26811;53.160;8.202;2023-08-07T21:16:53;13.60;99.90
41060;DHT22;26811;53.160;8.202;2023-08-07T21:21:54;13.60;99.90
41060;DHT22;26811;53.160;8.202;2023-08-07T21:26:55;13.60;99.90
41060;DHT22;26811;53.160;8.202;2023-08-07T21:31:55;13.50;99.90
41060;DHT22;26811;53.160;8.202;2023-08-07T21:36:56;13.50;99.90
41060;DHT22;26811;53.160;8.202;2023-08-07T21:41:56;13.40;99.90
41060;DHT22;26811;53.160;8.202;2023-08-07T21:46:57;13.40;99.90
41060;DHT22;26811;53.160;8.202;2023-08-07T21:51:57;13.30;99.90
41060;DHT22;26811;53.160;8.202;2023-08-07T21:56:58;13.20;99.90
41060;DHT22;26811;53.160;8.202;2023-08-07T22:01:58;13.20;99.90
41060;DHT22;26811;53.160;8.202;2023-08-07T22:06:59;13.20;99.90
41060;DHT22;26811;53.160;8.202;2023-08-07T22:12:00;13.20;99.90
41060;DHT22;26811;53.160;8.202;2023-08-07T22:17:00;13.20;99.90
41060;DHT22;26811;53.160;8.202;2023-08-07T22:22:01;13.10;99.90
41060;DHT22;26811;53.160;8.202;2023-08-07T22:27:02;13.20;99.90
41060;DHT22;26811;53.160;8.202;2023-08-07T22:32:03;13.10;99.90
41060;DHT22;26811;53.160;8.202;2023-08-07T22:37:04;13.10;99.90
41060;DHT22;26811;53.160;8.202;2023-08-07T22:42:04;13.10;99.90
41060;DHT22;26811;53.160;8.202;2023-08-07T22:47:05;13.20;99.90
41060;DHT22;26811;53.160;8.202;2023-08-07T22:52:06;13.20;99.90
41060;DHT22;26811;53.160;8.202;2023-08-07T22:57:06;13.20;99.90
41060;DHT22;26811;53.160;8.202;2023-08-07T23:02:07;13.20;99.90
41060;DHT22;26811;53.160;8.202;2023-08-07T23:07:07;13.20;99.90
41060;DHT22;26811;53.160;8.202;2023-08-07T23:12:08;13.30;99.90
41060;DHT22;26811;53.160;8.202;2023-08-07T23:17:09;13.20;99.90
41060;DHT22;26811;53.160;8.202;2023-08-07T23:22:09;13.20;99.90
41060;DHT22;26811;53.160;8.202;2023-08-07T23:27:10;13.10;99.90
41060;DHT22;26811;53.160;8.202;2023-08-07T23:32:11;13.10;99.90
41060;DHT22;26811;53.160;8.202;2023-08-07T23:37:11;13.10;99.90
41060;DHT22;26811;53.160;8.202;2023-08-07T23:42:12;13.10;99.90
41060;DHT22;26811;53.160;8.202;2023-08-07T23:47:12;13.10;99.90
41060;DHT22;26811;53.160;8.202;2023-08-07T23:52:13;13.10;99.90
41060;DHT22;26811;53.160;8.202;2023-08-07T23:57:13;13.10;99.90
